Windcrest, Texas
Current Conditions -  °F | °C
As of 6:58 AM on Thursday 27 Nov 2014 (Local Time) from KRND Reporting Station
Clear Clear  
Wind Chill: 44°   Ceiling: Unl
Heat Index: 48°   Visibility: 10mi
Dew Point: 33°   Wind: 10mph
Humidity: 56%   Direction: 30°NNE
Pressure: 30.45"   Gusts: NA
Location:  29.5172°N, 98.362°W
Report Text: KRND 271258Z AUTO 03009KT 10SM CLR 09/01 A3045 RMK AO2 SLP311 T00900006
Loading
Personal Weather Stations






























Interactive Weather Map New forecast layout! Learn more

10-Day Weather Forecast

Advertisements
Track Severe Weather on mobile